Time,TemperatureF,DewpointF,PressureIn,WindDirection,WindDirectionDegrees,WindSpeedMPH,WindSpeedGustMPH,Humidity,HourlyPrecipIn,Conditions,Clouds,dailyrainin,SolarRadiationWatts/m^2,SoftwareType,DateUTC
2013-05-15 00:22:00,76.0,49.0,-100.00,NNE,30,12.0,15.0,38,0.00,,,0.00,0.000000,,2013-05-15 05:22:00,
2013-05-15 00:32:00,76.0,49.0,-100.00,NNE,30,12.0,15.0,38,0.00,,,0.00,0.000000,,2013-05-15 05:32:00,
2013-05-15 00:42:00,76.0,49.0,-100.00,NNE,30,12.0,15.0,38,0.00,,,0.00,0.000000,,2013-05-15 05:42:00,
2013-05-15 00:52:00,76.0,49.0,-100.00,NNE,30,12.0,15.0,38,0.00,,,0.00,0.000000,,2013-05-15 05:52:00,
2013-05-15 01:21:00,73.0,41.0,-100.00,NE,34,10.0,19.0,32,0.00,,,0.00,0.000000,,2013-05-15 06:21:00,
2013-05-15 01:32:00,73.0,41.0,-100.00,NE,34,10.0,19.0,32,0.00,,,0.00,0.000000,,2013-05-15 06:32:00,
2013-05-15 01:42:00,73.0,41.0,-100.00,NE,34,10.0,19.0,32,0.00,,,0.00,0.000000,,2013-05-15 06:42:00,
2013-05-15 01:52:00,73.0,41.0,-100.00,NE,34,10.0,19.0,32,0.00,,,0.00,0.000000,,2013-05-15 06:52:00,
2013-05-15 02:22:00,68.0,44.0,-100.00,NE,37,9.0,12.0,42,0.00,,,0.00,0.000000,,2013-05-15 07:22:00,
2013-05-15 02:32:00,68.0,44.0,-100.00,NE,37,9.0,12.0,42,0.00,,,0.00,0.000000,,2013-05-15 07:32:00,
2013-05-15 02:41:00,68.0,44.0,-100.00,NE,37,9.0,12.0,42,0.00,,,0.00,0.000000,,2013-05-15 07:41:00,
2013-05-15 02:52:00,68.0,44.0,-100.00,NE,37,9.0,12.0,42,0.00,,,0.00,0.000000,,2013-05-15 07:52:00,
2013-05-15 03:21:00,65.0,41.0,-100.00,NE,37,8.0,13.0,42,0.00,,,0.00,0.000000,,2013-05-15 08:21:00,
2013-05-15 03:32:00,65.0,41.0,-100.00,NE,37,8.0,13.0,42,0.00,,,0.00,0.000000,,2013-05-15 08:32:00,
2013-05-15 03:42:00,65.0,41.0,-100.00,NE,37,8.0,13.0,42,0.00,,,0.00,0.000000,,2013-05-15 08:42:00,
2013-05-15 03:53:00,65.0,41.0,-100.00,NE,37,8.0,13.0,42,0.00,,,0.00,0.000000,,2013-05-15 08:53:00,
2013-05-15 04:21:00,65.0,38.0,-100.00,NE,52,9.0,15.0,37,0.00,,,0.00,0.000000,,2013-05-15 09:21:00,
2013-05-15 04:33:00,65.0,38.0,-100.00,NE,52,9.0,15.0,37,0.00,,,0.00,0.000000,,2013-05-15 09:33:00,
2013-05-15 04:42:00,65.0,38.0,-100.00,NE,52,9.0,15.0,37,0.00,,,0.00,0.000000,,2013-05-15 09:42:00,
2013-05-15 04:53:00,65.0,38.0,-100.00,NE,52,9.0,15.0,37,0.00,,,0.00,0.000000,,2013-05-15 09:53:00,
2013-05-15 05:22:00,62.0,39.0,-100.00,North,357,12.0,16.0,43,0.00,,,0.00,0.000000,,2013-05-15 10:22:00,
2013-05-15 05:32:00,62.0,39.0,-100.00,North,357,12.0,16.0,43,0.00,,,0.00,0.000000,,2013-05-15 10:32:00,
2013-05-15 05:42:00,62.0,39.0,-100.00,North,357,12.0,16.0,43,0.00,,,0.00,0.000000,,2013-05-15 10:42:00,
2013-05-15 05:52:00,62.0,39.0,-100.00,North,357,12.0,16.0,43,0.00,,,0.00,0.000000,,2013-05-15 10:52:00,
2013-05-15 05:56:00,62.0,40.0,-100.00,NE,48,13.0,19.0,44,0.00,,,0.00,0.000000,,2013-05-15 10:56:00,
2013-05-15 06:27:00,62.0,40.0,-100.00,NE,48,13.0,19.0,44,0.00,,,0.00,0.000000,,2013-05-15 11:27:00,
2013-05-15 06:37:00,62.0,40.0,-100.00,NE,48,13.0,19.0,44,0.00,,,0.00,0.000000,,2013-05-15 11:37:00,
2013-05-15 06:47:00,62.0,40.0,-100.00,NE,48,13.0,19.0,44,0.00,,,0.00,0.000000,,2013-05-15 11:47:00,
2013-05-15 07:36:00,61.0,40.0,-100.00,NE,48,16.0,22.0,45,0.00,,,0.00,0.000000,,2013-05-15 12:36:00,
2013-05-15 07:47:00,61.0,40.0,-100.00,NE,48,16.0,22.0,45,0.00,,,0.00,0.000000,,2013-05-15 12:47:00,
2013-05-15 07:54:00,61.0,40.0,-100.00,NE,48,16.0,22.0,45,0.00,,,0.00,0.000000,,2013-05-15 12:54:00,
2013-05-15 07:56:00,62.0,42.0,-100.00,NE,55,15.0,21.0,47,0.00,,,-99.99,0.000000,,2013-05-15 12:56:00,
2013-05-15 08:26:00,62.0,42.0,-100.00,NE,55,15.0,21.0,47,0.00,,,-99.99,0.000000,,2013-05-15 13:26:00,
2013-05-15 08:36:00,62.0,42.0,-100.00,NE,55,15.0,21.0,47,0.00,,,-99.99,0.000000,,2013-05-15 13:36:00,
2013-05-15 08:46:00,62.0,42.0,-100.00,NE,55,15.0,21.0,47,0.00,,,-99.99,0.000000,,2013-05-15 13:46:00,
2013-05-15 09:26:00,67.0,44.0,-100.00,NE,42,18.0,25.0,44,0.00,,,0.00,0.000000,,2013-05-15 14:26:00,
2013-05-15 09:37:00,67.0,44.0,-100.00,NE,42,18.0,25.0,44,0.00,,,0.00,0.000000,,2013-05-15 14:37:00,
2013-05-15 09:46:00,67.0,44.0,-100.00,NE,42,18.0,25.0,44,0.00,,,0.00,0.000000,,2013-05-15 14:46:00,
2013-05-15 09:56:00,70.0,44.0,-100.00,NE,45,22.0,30.0,39,0.00,,,0.00,0.000000,,2013-05-15 14:56:00,
2013-05-15 10:27:00,70.0,44.0,-100.00,NE,45,22.0,30.0,39,0.00,,,0.00,0.000000,,2013-05-15 15:27:00,
2013-05-15 10:47:00,70.0,44.0,-100.00,NE,45,22.0,30.0,39,0.00,,,0.00,0.000000,,2013-05-15 15:47:00,
2013-05-15 11:28:00,73.0,47.0,-100.00,ENE,62,21.0,30.0,40,0.00,,,0.00,0.000000,,2013-05-15 16:28:00,
2013-05-15 11:36:00,73.0,47.0,-100.00,ENE,62,21.0,30.0,40,0.00,,,0.00,0.000000,,2013-05-15 16:36:00,
2013-05-15 11:47:00,73.0,47.0,-100.00,ENE,62,21.0,30.0,40,0.00,,,0.00,0.000000,,2013-05-15 16:47:00,
2013-05-15 11:53:00,73.0,47.0,-100.00,ENE,62,21.0,30.0,40,0.00,,,0.00,0.000000,,2013-05-15 16:53:00,
2013-05-15 11:56:00,75.0,50.0,-100.00,ENE,69,20.0,32.0,42,0.00,,,0.00,0.000000,,2013-05-15 16:56:00,
2013-05-15 12:27:00,75.0,50.0,-100.00,ENE,69,20.0,32.0,42,0.00,,,0.00,0.000000,,2013-05-15 17:27:00,
2013-05-15 12:36:00,75.0,50.0,-100.00,ENE,69,20.0,32.0,42,0.00,,,0.00,0.000000,,2013-05-15 17:36:00,
2013-05-15 12:45:00,75.0,50.0,-100.00,ENE,69,20.0,32.0,42,0.00,,,0.00,0.000000,,2013-05-15 17:45:00,
2013-05-15 13:26:00,77.0,49.0,-100.00,ENE,67,18.0,27.0,38,0.00,,,0.00,0.000000,,2013-05-15 18:26:00,
2013-05-15 13:37:00,77.0,49.0,-100.00,ENE,67,18.0,27.0,38,0.00,,,0.00,0.000000,,2013-05-15 18:37:00,
2013-05-15 13:46:00,77.0,49.0,-100.00,ENE,67,18.0,27.0,38,0.00,,,0.00,0.000000,,2013-05-15 18:46:00,
2013-05-15 13:54:00,77.0,49.0,-100.00,ENE,67,18.0,27.0,38,0.00,,,0.00,0.000000,,2013-05-15 18:54:00,
2013-05-15 14:30:00,78.0,51.0,-100.00,East,81,18.0,27.0,39,0.00,,,0.00,0.000000,,2013-05-15 19:30:00,
2013-05-15 14:37:00,78.0,51.0,-100.00,East,81,18.0,27.0,39,0.00,,,0.00,0.000000,,2013-05-15 19:37:00,
2013-05-15 14:45:00,78.0,51.0,-100.00,East,81,18.0,27.0,39,0.00,,,0.00,0.000000,,2013-05-15 19:45:00,
2013-05-15 14:54:00,78.0,51.0,-100.00,East,81,18.0,27.0,39,0.00,,,0.00,0.000000,,2013-05-15 19:54:00,
2013-05-15 15:38:00,79.0,53.0,-100.00,East,84,17.0,24.0,40,0.00,,,0.00,0.000000,,2013-05-15 20:38:00,
2013-05-15 15:46:00,79.0,53.0,-100.00,East,84,17.0,24.0,40,0.00,,,0.00,0.000000,,2013-05-15 20:46:00,
2013-05-15 15:53:00,79.0,53.0,-100.00,East,84,17.0,24.0,40,0.00,,,0.00,0.000000,,2013-05-15 20:53:00,
2013-05-15 15:56:00,83.0,52.0,-100.00,East,97,14.0,24.0,35,0.00,,,0.00,0.000000,,2013-05-15 20:56:00,
2013-05-15 16:28:00,83.0,52.0,-100.00,East,97,14.0,24.0,35,0.00,,,0.00,0.000000,,2013-05-15 21:28:00,
2013-05-15 16:49:00,83.0,52.0,-100.00,East,97,14.0,24.0,35,0.00,,,0.00,0.000000,,2013-05-15 21:49:00,
2013-05-15 17:29:00,83.0,55.0,-100.00,East,95,11.0,20.0,38,0.00,,,0.00,0.000000,,2013-05-15 22:29:00,
2013-05-15 17:48:00,83.0,55.0,-100.00,East,95,11.0,20.0,38,0.00,,,0.00,0.000000,,2013-05-15 22:48:00,
2013-05-15 17:54:00,83.0,55.0,-100.00,East,95,11.0,20.0,38,0.00,,,0.00,0.000000,,2013-05-15 22:54:00,
2013-05-15 18:27:00,83.0,59.0,-100.00,East,99,10.0,16.0,44,0.00,,,0.00,0.000000,,2013-05-15 23:27:00,
2013-05-15 18:38:00,83.0,59.0,-100.00,East,99,10.0,16.0,44,0.00,,,0.00,0.000000,,2013-05-15 23:38:00,
2013-05-15 19:26:00,81.0,58.0,-100.00,SE,143,6.0,15.0,46,0.00,,,0.00,0.000000,,2013-05-16 00:26:00,
2013-05-15 19:35:00,81.0,58.0,-100.00,SE,143,6.0,15.0,46,0.00,,,0.00,0.000000,,2013-05-16 00:35:00,
2013-05-15 19:49:00,81.0,58.0,-100.00,SE,143,6.0,15.0,46,0.00,,,0.00,0.000000,,2013-05-16 00:49:00,
2013-05-15 19:54:00,81.0,58.0,-100.00,SE,143,6.0,15.0,46,0.00,,,0.00,0.000000,,2013-05-16 00:54:00,
2013-05-15 19:56:00,78.0,62.0,-100.00,SSE,148,4.0,10.0,57,0.00,,,0.00,0.000000,,2013-05-16 00:56:00,
2013-05-15 20:29:00,78.0,62.0,-100.00,SSE,148,4.0,10.0,57,0.00,,,0.00,0.000000,,2013-05-16 01:29:00,
2013-05-15 20:48:00,78.0,62.0,-100.00,SSE,148,4.0,10.0,57,0.00,,,0.00,0.000000,,2013-05-16 01:48:00,
2013-05-15 22:25:00,73.0,60.0,-100.00,ESE,113,11.0,15.0,64,0.00,,,0.00,0.000000,,2013-05-16 03:25:00,
2013-05-15 22:37:00,73.0,60.0,-100.00,ESE,113,11.0,15.0,64,0.00,,,0.00,0.000000,,2013-05-16 03:37:00,
2013-05-15 22:45:00,73.0,60.0,-100.00,ESE,113,11.0,15.0,64,0.00,,,0.00,0.000000,,2013-05-16 03:45:00,
2013-05-15 22:54:00,73.0,60.0,-100.00,ESE,113,11.0,15.0,64,0.00,,,0.00,0.000000,,2013-05-16 03:54:00,
2013-05-15 23:23:00,70.0,56.0,-100.00,East,80,10.0,14.0,61,0.00,,,0.00,0.000000,,2013-05-16 04:23:00,
2013-05-15 23:33:00,70.0,56.0,-100.00,East,80,10.0,14.0,61,0.00,,,0.00,0.000000,,2013-05-16 04:33:00,
2013-05-15 23:42:00,70.0,56.0,-100.00,East,80,10.0,14.0,61,0.00,,,0.00,0.000000,,2013-05-16 04:42:00,
2013-05-15 23:53:00,70.0,56.0,-100.00,East,80,10.0,14.0,61,0.00,,,0.00,0.000000,,2013-05-16 04:53:00,